createdAt,value
2023-04-24T00:05:07.370Z,62.99
2023-04-24T00:10:21.157Z,63.72
2023-04-24T00:15:24.698Z,64.09
2023-04-24T00:20:30.551Z,64.35
2023-04-24T00:25:56.761Z,65.11
2023-04-24T00:31:13.459Z,65.71
2023-04-24T00:36:17.345Z,65.52
2023-04-24T00:41:22.914Z,66.01
2023-04-24T00:46:26.465Z,66.39
2023-04-24T00:51:29.660Z,66.85
2023-04-24T00:56:39.298Z,67.23
2023-04-24T01:01:43.333Z,67.06
2023-04-24T01:07:11.734Z,67.59
2023-04-24T01:12:15.751Z,67.92
2023-04-24T01:17:22.180Z,68.52
2023-04-24T01:22:25.605Z,68.70
2023-04-24T01:27:29.737Z,68.63
2023-04-24T01:32:37.586Z,68.65
2023-04-24T01:37:43.574Z,68.68
2023-04-24T01:42:56.477Z,68.73
2023-04-24T01:48:00.217Z,69.12
2023-04-24T01:53:24.069Z,69.54
2023-04-24T01:58:30.700Z,69.79
2023-04-24T02:03:34.203Z,69.71
2023-04-24T02:08:59.144Z,69.69
2023-04-24T02:14:02.469Z,69.86
2023-04-24T02:19:08.836Z,70.15
2023-04-24T02:24:12.200Z,69.72
2023-04-24T02:29:23.937Z,69.71
2023-04-24T02:34:29.432Z,70.13
2023-04-24T02:39:32.639Z,70.43
2023-04-24T02:44:47.668Z,70.87
2023-04-24T02:49:51.039Z,71.32
2023-04-24T02:54:57.025Z,71.86
2023-04-24T03:00:01.431Z,72.15
2023-04-24T03:05:05.612Z,72.62
2023-04-24T03:10:12.012Z,73.04
2023-04-24T03:15:26.323Z,73.28
2023-04-24T03:20:32.178Z,73.35
2023-04-24T03:25:42.012Z,73.16
2023-04-24T03:30:47.992Z,73.16
2023-04-24T03:36:25.214Z,72.78
2023-04-24T03:41:34.154Z,72.47
2023-04-24T03:47:03.829Z,71.98
2023-04-24T03:52:22.470Z,71.85
2023-04-24T03:57:32.404Z,71.87
2023-04-24T04:03:00.611Z,71.73
2023-04-24T04:08:14.142Z,71.59
2023-04-24T04:13:22.931Z,71.22
2023-04-24T04:18:31.520Z,70.63
2023-04-24T04:24:00.419Z,70.19
2023-04-24T04:29:19.645Z,69.89
2023-04-24T04:34:24.388Z,69.69
2023-04-24T04:39:30.942Z,69.14
2023-04-24T04:45:03.534Z,68.76
2023-04-24T04:50:17.832Z,68.09
2023-04-24T04:55:21.797Z,67.09
2023-04-24T05:00:47.468Z,65.65
2023-04-24T05:05:56.109Z,63.98
2023-04-24T05:11:00.414Z,62.88
2023-04-24T05:16:05.264Z,61.08
2023-04-24T05:21:08.723Z,59.47
2023-04-24T05:26:12.796Z,57.20
2023-04-24T05:31:16.009Z,55.83
2023-04-24T05:36:19.575Z,53.57
2023-04-24T05:41:23.760Z,52.94
2023-04-24T05:46:26.878Z,53.35
2023-04-24T05:51:30.112Z,53.63
2023-04-24T05:56:33.800Z,53.69
2023-04-24T06:01:38.318Z,53.27
2023-04-24T06:06:51.989Z,52.01
2023-04-24T06:11:55.928Z,50.97
2023-04-24T06:17:05.239Z,50.17
2023-04-24T06:22:12.525Z,49.40
2023-04-24T06:27:16.025Z,48.89
2023-04-24T06:32:19.366Z,48.14
2023-04-24T06:37:22.962Z,47.70
2023-04-24T06:42:26.126Z,46.77
2023-04-24T06:47:29.347Z,46.00
2023-04-24T06:52:36.503Z,46.90
2023-04-24T06:57:39.708Z,46.25
2023-04-24T07:02:42.871Z,46.88
2023-04-24T07:07:46.953Z,46.77
2023-04-24T07:12:50.172Z,46.70
2023-04-24T07:17:53.613Z,47.53
2023-04-24T07:22:56.818Z,48.78
2023-04-24T07:28:00.975Z,49.89
2023-04-24T07:33:04.751Z,50.49
2023-04-24T07:38:08.082Z,50.21
2023-04-24T07:43:11.875Z,50.31
2023-04-24T07:48:17.546Z,49.99
2023-04-24T07:53:20.817Z,48.54
2023-04-24T07:58:24.170Z,48.58
2023-04-24T08:03:27.404Z,48.54
2023-04-24T08:08:30.818Z,47.43
2023-04-24T08:13:33.931Z,47.35
2023-04-24T08:18:37.301Z,47.87
2023-04-24T08:23:40.670Z,48.45
2023-04-24T08:28:44.071Z,47.97
2023-04-24T08:33:48.624Z,47.85
2023-04-24T08:38:51.852Z,47.62
2023-04-24T08:43:56.299Z,48.01
2023-04-24T08:49:00.206Z,48.91
2023-04-24T08:54:04.998Z,50.33
2023-04-24T08:59:18.025Z,50.66
2023-04-24T09:04:23.586Z,50.29
2023-04-24T09:09:27.355Z,49.04
2023-04-24T09:14:32.498Z,48.51
2023-04-24T09:19:35.864Z,47.36
2023-04-24T09:24:39.908Z,46.27
2023-04-24T09:30:03.982Z,46.32
2023-04-24T09:35:13.335Z,45.65
2023-04-24T09:40:19.029Z,45.18
2023-04-24T09:45:22.914Z,43.97
2023-04-24T09:50:26.202Z,44.38
2023-04-24T09:55:29.416Z,44.39
2023-04-24T10:00:34.406Z,43.60
2023-04-24T10:05:39.868Z,43.69
2023-04-24T10:10:47.272Z,43.70
2023-04-24T10:15:51.288Z,43.35
2023-04-24T10:20:56.285Z,42.74
2023-04-24T10:26:02.051Z,43.58
2023-04-24T10:31:05.636Z,42.80
2023-04-24T10:36:13.876Z,42.79
2023-04-24T10:41:24.133Z,43.49
2023-04-24T10:47:12.323Z,41.86
2023-04-24T10:52:47.419Z,41.60
2023-04-24T10:58:04.867Z,40.63
2023-04-24T11:03:24.751Z,41.32
2023-04-24T11:08:31.530Z,38.42
2023-04-24T11:13:57.038Z,38.88
2023-04-24T11:19:03.035Z,38.95
2023-04-24T11:24:41.833Z,38.59
2023-04-24T11:30:04.528Z,39.14
2023-04-24T11:35:26.181Z,39.06
2023-04-24T11:40:29.497Z,38.84
2023-04-24T11:45:32.796Z,37.88
2023-04-24T11:50:36.331Z,37.82
2023-04-24T11:55:39.708Z,38.55
2023-04-24T12:00:42.778Z,38.96
2023-04-24T12:05:46.424Z,39.49
2023-04-24T12:10:53.005Z,39.18
2023-04-24T12:15:56.981Z,38.95
2023-04-24T12:21:31.431Z,39.23
2023-04-24T12:26:34.601Z,40.06
2023-04-24T12:31:37.817Z,40.69
2023-04-24T12:36:40.986Z,40.96
2023-04-24T12:41:58.205Z,40.78
2023-04-24T12:47:02.334Z,40.36
2023-04-24T12:52:05.966Z,41.75
2023-04-24T12:57:09.044Z,43.06
2023-04-24T13:02:13.118Z,43.21
2023-04-24T13:07:17.463Z,43.68
2023-04-24T13:12:22.069Z,43.22
2023-04-24T13:17:25.676Z,42.69
2023-04-24T13:22:28.887Z,42.05
2023-04-24T13:27:32.006Z,41.73
2023-04-24T13:32:36.665Z,41.33
2023-04-24T13:37:40.663Z,40.84
2023-04-24T13:42:44.203Z,41.16
2023-04-24T13:47:47.394Z,40.22
2023-04-24T13:52:50.508Z,39.80
2023-04-24T13:57:56.683Z,39.16
2023-04-24T14:02:59.925Z,38.88
2023-04-24T14:08:03.342Z,38.86
2023-04-24T14:13:07.562Z,38.57
2023-04-24T14:18:10.976Z,37.98
2023-04-24T14:23:14.071Z,38.51
2023-04-24T14:28:17.270Z,39.50
2023-04-24T14:33:20.552Z,39.88
2023-04-24T14:38:23.770Z,39.26
2023-04-24T14:43:26.834Z,38.30
2023-04-24T14:48:30.222Z,37.86
2023-04-24T14:53:33.343Z,37.16
2023-04-24T14:58:38.714Z,37.79
2023-04-24T15:03:42.336Z,37.64
2023-04-24T15:08:47.415Z,38.24
2023-04-24T15:13:52.045Z,38.07
2023-04-24T15:19:07.360Z,37.99
2023-04-24T15:24:15.759Z,37.81
2023-04-24T15:29:18.881Z,36.97
2023-04-24T15:34:22.104Z,36.44
2023-04-24T15:39:28.231Z,36.39
2023-04-24T15:44:31.375Z,36.48
2023-04-24T15:49:34.574Z,36.76
2023-04-24T15:54:39.426Z,36.96
2023-04-24T15:59:43.444Z,37.11
2023-04-24T16:04:47.513Z,37.61
2023-04-24T16:09:50.982Z,38.12
2023-04-24T16:14:55.181Z,38.31
2023-04-24T16:19:58.335Z,38.25
2023-04-24T16:25:01.774Z,38.34
2023-04-24T16:30:05.893Z,38.73
2023-04-24T16:35:09.517Z,39.04
2023-04-24T16:40:12.998Z,39.29
2023-04-24T16:45:16.144Z,39.55
2023-04-24T16:50:19.304Z,39.81
2023-04-24T16:55:22.528Z,40.07
2023-04-24T17:00:25.801Z,40.39
2023-04-24T17:05:28.986Z,40.87
2023-04-24T17:10:32.065Z,41.55
2023-04-24T17:15:35.869Z,42.96
2023-04-24T17:20:39.253Z,44.49
2023-04-24T17:25:42.829Z,45.17
2023-04-24T17:30:45.897Z,45.98
2023-04-24T17:35:50.563Z,46.94
2023-04-24T17:40:54.071Z,48.25
2023-04-24T17:45:58.187Z,49.06
2023-04-24T17:51:01.730Z,48.92
2023-04-24T17:56:05.120Z,49.82
2023-04-24T18:01:08.388Z,50.43
2023-04-24T18:06:11.580Z,50.54
2023-04-24T18:11:15.025Z,50.39
2023-04-24T18:16:18.294Z,50.50
2023-04-24T18:21:21.672Z,50.47
2023-04-24T18:26:25.043Z,50.24
2023-04-24T18:31:28.281Z,49.93
2023-04-24T18:36:31.406Z,50.14
2023-04-24T18:41:35.437Z,50.46
2023-04-24T18:46:41.603Z,50.04
2023-04-24T18:51:53.594Z,49.85
2023-04-24T18:56:58.036Z,49.53
2023-04-24T19:02:01.267Z,49.08
2023-04-24T19:07:04.655Z,48.30
2023-04-24T19:12:07.994Z,47.76
2023-04-24T19:17:32.077Z,47.33
2023-04-24T19:22:35.530Z,47.14
2023-04-24T19:27:39.108Z,46.55
2023-04-24T19:32:42.291Z,46.19
2023-04-24T19:37:45.747Z,46.08
2023-04-24T19:42:49.678Z,46.20
2023-04-24T19:47:53.153Z,46.87
2023-04-24T19:52:56.636Z,47.20
2023-04-24T19:57:59.827Z,48.25
2023-04-24T20:03:05.505Z,49.51
2023-04-24T20:08:29.186Z,50.93
2023-04-24T20:13:33.201Z,52.45
2023-04-24T20:18:39.273Z,53.35
2023-04-24T20:23:42.464Z,54.03
2023-04-24T20:28:45.701Z,54.94
2023-04-24T20:33:49.042Z,55.80
2023-04-24T20:38:53.569Z,56.56
2023-04-24T20:43:56.980Z,57.50
2023-04-24T20:49:00.551Z,57.99
2023-04-24T20:54:04.058Z,58.57
2023-04-24T20:59:07.335Z,58.59
2023-04-24T21:04:11.216Z,59.07
2023-04-24T21:09:14.642Z,59.24
2023-04-24T21:14:18.180Z,59.73
2023-04-24T21:19:31.803Z,60.25
2023-04-24T21:24:35.422Z,60.68
2023-04-24T21:29:38.763Z,60.95
2023-04-24T21:34:41.976Z,61.50
2023-04-24T21:39:45.289Z,62.06
2023-04-24T21:44:48.870Z,62.20
2023-04-24T21:49:52.283Z,62.77
2023-04-24T21:54:55.503Z,63.24
2023-04-24T21:59:58.868Z,63.66
2023-04-24T22:05:04.606Z,64.27
2023-04-24T22:10:08.709Z,64.66
2023-04-24T22:15:17.112Z,65.24
2023-04-24T22:20:20.442Z,65.60
2023-04-24T22:25:23.542Z,65.98
2023-04-24T22:30:27.062Z,66.40
2023-04-24T22:35:30.457Z,66.93
2023-04-24T22:40:35.150Z,67.36
2023-04-24T22:45:41.633Z,68.11
2023-04-24T22:50:45.061Z,68.52
2023-04-24T22:55:50.714Z,68.93
2023-04-24T23:00:59.853Z,69.37
2023-04-24T23:06:13.487Z,69.48
2023-04-24T23:11:17.013Z,69.92
2023-04-24T23:16:31.156Z,70.44
2023-04-24T23:21:47.689Z,70.88
2023-04-24T23:26:51.294Z,71.40
2023-04-24T23:32:03.928Z,71.56
2023-04-24T23:37:07.913Z,72.02
2023-04-24T23:42:24.145Z,72.16
2023-04-24T23:47:30.383Z,72.69
2023-04-24T23:52:35.504Z,73.08
2023-04-24T23:57:38.717Z,73.43
